Time;durP1;ratioP1;P1;durP2;ratioP2;P2;SDS_P1;SDS_P2;PMS_P1;PMS_P2;Temp;Humidity;BMP_temperature;BMP_pressure;BME280_temperature;BME280_humidity;BME280_pressure;Samples;Min_cycle;Max_cycle;Signal;HPM_P1;HPM_P2
2021/04/21 00:00:46;;;;;;;;;;;13.90;68.90;;;;;;2064274;28;1518;-49
2021/04/21 00:02:05;;;;;;;;;;;13.90;68.90;;;;;;2060713;28;1377;-48
2021/04/21 00:03:25;;;;;;;;;;;13.90;69.00;;;;;;2064603;28;1634;-49
2021/04/21 00:04:44;;;;;;;;;;;13.90;69.10;;;;;;2064998;28;1911;-49
2021/04/21 00:06:04;;;;;;;;;;;13.90;69.00;;;;;;2073753;28;1453;-49
2021/04/21 00:07:23;;;;;;;;;;;13.90;69.00;;;;;;2062996;28;1018;-48
2021/04/21 00:08:42;;;;;;;;;;;13.90;69.00;;;;;;2070867;28;970;-48
2021/04/21 00:10:02;;;;;;;;;;;13.90;69.10;;;;;;2057560;28;1412;-48
2021/04/21 00:11:21;;;;;;;;;;;13.90;69.00;;;;;;2062963;28;708;-49
2021/04/21 00:12:40;;;;;;;;;;;13.90;69.10;;;;;;2065912;28;729;-49
2021/04/21 00:14:00;;;;;;;;;;;13.90;69.80;;;;;;2071132;28;702;-49
2021/04/21 00:15:20;;;;;;;;;;;13.90;69.10;;;;;;2066052;28;737;-48
2021/04/21 00:16:39;;;;;;;;;;;13.90;69.20;;;;;;2071063;28;1464;-49
2021/04/21 00:18:00;;;;;;;;;;;13.90;69.30;;;;;;2066196;28;735;-49
2021/04/21 00:19:19;;;;;;;;;;;13.90;69.20;;;;;;2071181;28;733;-48
2021/04/21 00:20:40;;;;;;;;;;;13.90;69.20;;;;;;2068800;28;1923;-48
2021/04/21 00:21:59;;;;;;;;;;;13.90;69.20;;;;;;2057525;28;743;-49
2021/04/21 00:23:18;;;;;;;;;;;13.90;69.30;;;;;;2062760;28;774;-49
2021/04/21 00:24:38;;;;;;;;;;;13.90;69.30;;;;;;2071002;28;1895;-48
2021/04/21 00:25:57;;;;;;;;;;;13.90;69.40;;;;;;2073931;28;1457;-48
2021/04/21 00:27:17;;;;;;;;;;;13.90;69.40;;;;;;2066057;28;738;-49
2021/04/21 00:28:36;;;;;;;;;;;13.90;69.40;;;;;;2062706;28;707;-47
2021/04/21 00:30:01;;;;;;;;;;;13.90;69.40;;;;;;2062532;28;1462;-49
2021/04/21 00:31:20;;;;;;;;;;;13.90;69.40;;;;;;2054865;28;790;-48
2021/04/21 00:32:44;;;;;;;;;;;13.90;69.40;;;;;;2062775;28;735;-48
2021/04/21 00:34:04;;;;;;;;;;;13.90;69.40;;;;;;2057664;28;712;-49
2021/04/21 00:35:24;;;;;;;;;;;13.90;69.40;;;;;;2062613;28;728;-48
2021/04/21 00:36:43;;;;;;;;;;;13.90;69.50;;;;;;2062139;28;1393;-48
2021/04/21 00:38:04;;;;;;;;;;;13.90;69.50;;;;;;2070254;28;1525;-48
2021/04/21 00:39:23;;;;;;;;;;;13.90;69.50;;;;;;2064205;28;1063;-48
2021/04/21 00:40:42;;;;;;;;;;;13.90;69.50;;;;;;2064263;28;1618;-48
2021/04/21 00:42:05;;;;;;;;;;;13.90;69.50;;;;;;2065516;28;749;-48
2021/04/21 00:43:47;;;;;;;;;;;13.90;69.50;;;;;;2060118;28;955;-49
2021/04/21 00:45:13;;;;;;;;;;;13.90;69.50;;;;;;2062917;28;1934;-49
2021/04/21 00:46:40;;;;;;;;;;;13.80;69.40;;;;;;2057728;28;1366;-48
2021/04/21 00:48:18;;;;;;;;;;;13.80;69.40;;;;;;2066755;28;1567;-47
2021/04/21 00:49:41;;;;;;;;;;;13.80;69.40;;;;;;2064311;28;1362;-47
2021/04/21 00:51:00;;;;;;;;;;;13.80;69.50;;;;;;2064225;28;1146;-47
2021/04/21 00:52:27;;;;;;;;;;;13.80;69.50;;;;;;2054695;28;1145;-47
2021/04/21 00:54:25;;;;;;;;;;;13.80;69.60;;;;;;2057560;28;1165;-46
2021/04/21 00:56:01;;;;;;;;;;;13.80;69.60;;;;;;2049257;28;1217;-47
2021/04/21 00:57:27;;;;;;;;;;;13.90;69.70;;;;;;2044549;29;1060;-46
2021/04/21 00:58:59;;;;;;;;;;;13.80;69.70;;;;;;2047376;28;1173;-49
2021/04/21 01:00:20;;;;;;;;;;;13.80;69.60;;;;;;2042359;29;1422;-49
2021/04/21 01:01:59;;;;;;;;;;;13.80;69.70;;;;;;2060969;28;1076;-46
2021/04/21 01:03:19;;;;;;;;;;;13.80;69.70;;;;;;2053447;28;1620;-47
2021/04/21 01:04:42;;;;;;;;;;;13.80;69.80;;;;;;2053671;28;1907;-48
2021/04/21 01:06:01;;;;;;;;;;;13.80;69.80;;;;;;2054939;28;1534;-48
2021/04/21 01:07:21;;;;;;;;;;;13.80;69.80;;;;;;2061439;28;1185;-45
2021/04/21 01:08:40;;;;;;;;;;;13.80;69.70;;;;;;2056872;28;1087;-47
2021/04/21 01:09:59;;;;;;;;;;;13.80;69.80;;;;;;2052544;28;1345;-46
2021/04/21 01:11:20;;;;;;;;;;;13.80;69.80;;;;;;2057723;28;1447;-47
2021/04/21 01:12:41;;;;;;;;;;;13.80;69.80;;;;;;2061424;28;1244;-48
2021/04/21 01:14:01;;;;;;;;;;;13.80;70.50;;;;;;2050026;28;1188;-47
2021/04/21 01:15:20;;;;;;;;;;;13.80;69.80;;;;;;2066094;28;1493;-46
2021/04/21 01:16:40;;;;;;;;;;;13.80;69.70;;;;;;2065110;28;1534;-46
2021/04/21 01:17:59;;;;;;;;;;;13.80;69.80;;;;;;2058161;28;1164;-50
2021/04/21 01:19:20;;;;;;;;;;;13.80;69.80;;;;;;2066037;28;1374;-49
2021/04/21 01:20:48;;;;;;;;;;;13.80;69.70;;;;;;2069819;28;1255;-48
2021/04/21 01:22:10;;;;;;;;;;;13.80;69.80;;;;;;2059224;28;1154;-48
2021/04/21 01:23:47;;;;;;;;;;;13.80;69.80;;;;;;2066854;28;1199;-49
2021/04/21 01:25:16;;;;;;;;;;;13.80;69.70;;;;;;2062726;28;1906;-49
2021/04/21 01:26:52;;;;;;;;;;;13.80;69.80;;;;;;2063839;28;1426;-48
2021/04/21 01:28:13;;;;;;;;;;;13.80;70.00;;;;;;2063617;28;1059;-48
2021/04/21 01:29:32;;;;;;;;;;;13.80;69.90;;;;;;2064130;28;1254;-48
2021/04/21 01:30:51;;;;;;;;;;;13.80;69.90;;;;;;2064857;28;1120;-47
2021/04/21 01:32:12;;;;;;;;;;;13.80;69.90;;;;;;2061514;28;1363;-50
2021/04/21 01:33:31;;;;;;;;;;;13.80;69.90;;;;;;2063758;28;1216;-48
2021/04/21 01:34:51;;;;;;;;;;;13.80;70.60;;;;;;2063130;28;1450;-48
2021/04/21 01:36:10;;;;;;;;;;;13.70;70.50;;;;;;2059424;28;1437;-48
2021/04/21 01:37:31;;;;;;;;;;;13.70;69.80;;;;;;2052967;28;1134;-49
2021/04/21 01:38:51;;;;;;;;;;;13.80;70.00;;;;;;2062105;28;1228;-48
2021/04/21 01:40:11;;;;;;;;;;;13.80;70.00;;;;;;2059079;28;1347;-48
2021/04/21 01:41:34;;;;;;;;;;;13.70;69.90;;;;;;2067044;28;1029;-49
2021/04/21 01:42:54;;;;;;;;;;;13.70;69.90;;;;;;2063919;28;1059;-48
2021/04/21 01:44:14;;;;;;;;;;;13.70;69.90;;;;;;2060358;28;1205;-48
2021/04/21 01:45:33;;;;;;;;;;;13.70;70.60;;;;;;2055663;28;1172;-47
2021/04/21 01:46:55;;;;;;;;;;;13.70;69.80;;;;;;2056589;28;1567;-49
2021/04/21 01:48:16;;;;;;;;;;;13.70;69.80;;;;;;2067129;28;1413;-48
2021/04/21 01:49:35;;;;;;;;;;;13.80;70.00;;;;;;2062905;28;1598;-48
2021/04/21 01:50:54;;;;;;;;;;;13.70;69.90;;;;;;2064880;28;1092;-48
2021/04/21 01:52:22;;;;;;;;;;;13.70;69.80;;;;;;2058841;28;1078;-48
2021/04/21 01:53:48;;;;;;;;;;;13.70;69.80;;;;;;2065116;28;1164;-48
2021/04/21 01:55:09;;;;;;;;;;;13.70;69.90;;;;;;2061192;28;1109;-48
2021/04/21 01:56:30;;;;;;;;;;;13.70;69.90;;;;;;2064342;28;1851;-48
2021/04/21 01:57:52;;;;;;;;;;;13.70;69.80;;;;;;2060729;28;1493;-49
2021/04/21 01:59:13;;;;;;;;;;;13.70;69.80;;;;;;2056659;28;1351;-49
2021/04/21 02:00:32;;;;;;;;;;;13.70;69.80;;;;;;2053681;28;1493;-47
2021/04/21 02:01:54;;;;;;;;;;;13.70;69.80;;;;;;2057078;28;1441;-48
2021/04/21 02:03:16;;;;;;;;;;;13.70;69.80;;;;;;2065508;28;1424;-48
2021/04/21 02:04:47;;;;;;;;;;;13.70;70.50;;;;;;2063576;28;1963;-48
2021/04/21 02:06:13;;;;;;;;;;;13.70;69.90;;;;;;2062360;28;1520;-49
2021/04/21 02:07:37;;;;;;;;;;;13.70;69.80;;;;;;2065142;28;1133;-49
2021/04/21 02:09:02;;;;;;;;;;;13.70;69.90;;;;;;2065063;28;1249;-47
2021/04/21 02:10:48;;;;;;;;;;;13.70;69.90;;;;;;2064766;28;1114;-49
2021/04/21 02:12:10;;;;;;;;;;;13.70;69.90;;;;;;2046732;28;1264;-48
2021/04/21 02:13:33;;;;;;;;;;;13.70;69.90;;;;;;2062755;28;1192;-48
2021/04/21 02:14:57;;;;;;;;;;;13.70;70.00;;;;;;2063681;28;1380;-48
2021/04/21 02:16:22;;;;;;;;;;;13.70;70.00;;;;;;2067583;28;1534;-47
2021/04/21 02:17:41;;;;;;;;;;;13.70;70.00;;;;;;2069708;28;1330;-49
2021/04/21 02:19:19;;;;;;;;;;;13.70;70.00;;;;;;2061608;28;1425;-48
2021/04/21 02:20:52;;;;;;;;;;;13.70;70.00;;;;;;2065486;28;1170;-48
2021/04/21 02:22:29;;;;;;;;;;;13.60;69.90;;;;;;2060446;28;1010;-47
2021/04/21 02:23:52;;;;;;;;;;;13.60;69.80;;;;;;2063443;28;1151;-48
2021/04/21 02:25:31;;;;;;;;;;;13.60;70.60;;;;;;2062210;28;1974;-49
2021/04/21 02:27:08;;;;;;;;;;;13.70;70.00;;;;;;2063538;28;1378;-47
2021/04/21 02:28:31;;;;;;;;;;;13.60;69.90;;;;;;2071015;28;1201;-48
2021/04/21 02:30:10;;;;;;;;;;;13.60;69.90;;;;;;2065973;28;1270;-49
2021/04/21 02:31:56;;;;;;;;;;;13.60;69.90;;;;;;2061241;28;1430;-49
2021/04/21 02:33:28;;;;;;;;;;;13.60;69.90;;;;;;2051822;28;1388;-49
2021/04/21 02:34:47;;;;;;;;;;;13.60;70.00;;;;;;2063977;28;1095;-48
2021/04/21 02:36:07;;;;;;;;;;;13.60;70.00;;;;;;2061146;28;1429;-48
2021/04/21 02:37:28;;;;;;;;;;;13.60;70.00;;;;;;2072213;28;1595;-48
2021/04/21 02:38:59;;;;;;;;;;;13.60;70.00;;;;;;2067576;28;1176;-48
2021/04/21 02:40:19;;;;;;;;;;;13.60;70.00;;;;;;2063655;28;1279;-49
2021/04/21 02:41:39;;;;;;;;;;;13.60;69.90;;;;;;2062104;28;1645;-48
2021/04/21 02:43:01;;;;;;;;;;;13.60;70.00;;;;;;2064519;28;1281;-48
2021/04/21 02:44:25;;;;;;;;;;;13.60;70.00;;;;;;2059902;28;1130;-49
2021/04/21 02:45:58;;;;;;;;;;;13.60;70.00;;;;;;2060200;28;1066;-49
2021/04/21 02:47:20;;;;;;;;;;;13.60;70.00;;;;;;2059674;28;1099;-48
2021/04/21 02:48:42;;;;;;;;;;;13.60;70.10;;;;;;2058612;28;1194;-48
2021/04/21 02:50:20;;;;;;;;;;;13.60;70.00;;;;;;2063093;28;1252;-49
2021/04/21 02:51:54;;;;;;;;;;;13.60;70.00;;;;;;2061309;28;1298;-48
2021/04/21 02:53:13;;;;;;;;;;;13.60;70.80;;;;;;2061769;28;1175;-49
2021/04/21 02:54:50;;;;;;;;;;;13.60;70.80;;;;;;2062407;28;1266;-47
2021/04/21 02:56:32;;;;;;;;;;;13.60;70.10;;;;;;2062968;28;1437;-49
2021/04/21 02:57:54;;;;;;;;;;;13.60;70.10;;;;;;2062143;28;1403;-49
2021/04/21 02:59:32;;;;;;;;;;;13.60;70.10;;;;;;2058569;28;1363;-49
2021/04/21 03:00:52;;;;;;;;;;;13.60;70.10;;;;;;2063987;28;913;-48
2021/04/21 03:02:15;;;;;;;;;;;13.60;70.00;;;;;;2062429;28;1117;-48
2021/04/21 03:03:49;;;;;;;;;;;13.60;70.00;;;;;;2057948;28;1183;-48
2021/04/21 03:05:24;;;;;;;;;;;13.60;70.00;;;;;;2054985;28;1979;-49
2021/04/21 03:06:50;;;;;;;;;;;13.60;70.00;;;;;;2057338;28;1623;-48
2021/04/21 03:08:15;;;;;;;;;;;13.60;70.00;;;;;;2056901;28;1200;-49
2021/04/21 03:09:46;;;;;;;;;;;13.60;70.00;;;;;;2059444;28;1376;-48
2021/04/21 03:11:07;;;;;;;;;;;13.50;69.90;;;;;;2061950;28;1534;-48
2021/04/21 03:12:27;;;;;;;;;;;13.50;70.00;;;;;;2062019;28;1163;-49
2021/04/21 03:14:00;;;;;;;;;;;13.50;69.90;;;;;;2067065;28;1040;-48
2021/04/21 03:15:20;;;;;;;;;;;13.60;70.10;;;;;;2071956;28;1073;-49
2021/04/21 03:16:41;;;;;;;;;;;13.50;70.00;;;;;;2052371;28;1425;-49
2021/04/21 03:18:01;;;;;;;;;;;13.50;70.80;;;;;;2060959;28;1078;-49
2021/04/21 03:19:25;;;;;;;;;;;13.50;70.10;;;;;;2063625;28;1002;-51
2021/04/21 03:20:46;;;;;;;;;;;13.50;70.00;;;;;;2063599;28;1192;-49
2021/04/21 03:22:16;;;;;;;;;;;13.50;70.00;;;;;;2053150;28;1212;-49
2021/04/21 03:23:35;;;;;;;;;;;13.50;70.10;;;;;;2064312;28;1145;-49
2021/04/21 03:24:54;;;;;;;;;;;13.50;70.00;;;;;;2056331;28;1903;-48
2021/04/21 03:26:14;;;;;;;;;;;13.50;70.00;;;;;;2059564;28;1442;-50
2021/04/21 03:27:33;;;;;;;;;;;13.50;70.00;;;;;;2056201;28;738;-48
2021/04/21 03:28:54;;;;;;;;;;;13.50;70.10;;;;;;2060367;28;808;-48
2021/04/21 03:30:14;;;;;;;;;;;13.50;70.80;;;;;;2056629;28;728;-48
2021/04/21 03:31:33;;;;;;;;;;;13.50;70.10;;;;;;2053888;28;1646;-49
2021/04/21 03:32:59;;;;;;;;;;;13.50;70.10;;;;;;2061273;28;1502;-48
2021/04/21 03:34:18;;;;;;;;;;;13.50;70.00;;;;;;2064788;28;912;-49
2021/04/21 03:35:37;;;;;;;;;;;13.50;70.00;;;;;;2064518;28;773;-48
2021/04/21 03:36:56;;;;;;;;;;;13.50;70.00;;;;;;2069185;28;937;-47
2021/04/21 03:38:16;;;;;;;;;;;13.50;70.00;;;;;;2068954;28;1831;-49
2021/04/21 03:39:35;;;;;;;;;;;13.50;70.00;;;;;;2064461;28;1446;-49
2021/04/21 03:40:54;;;;;;;;;;;13.40;69.90;;;;;;2058561;28;1494;-50
2021/04/21 03:42:14;;;;;;;;;;;13.40;68.80;;;;;;2057198;28;703;-49
2021/04/21 03:43:33;;;;;;;;;;;13.40;68.80;;;;;;2048543;29;1119;-50
2021/04/21 03:44:52;;;;;;;;;;;13.40;68.90;;;;;;2052774;28;1965;-47
2021/04/21 03:46:12;;;;;;;;;;;13.40;68.90;;;;;;2056437;28;1419;-48
2021/04/21 03:47:31;;;;;;;;;;;13.50;69.20;;;;;;2061531;28;727;-49
2021/04/21 03:48:51;;;;;;;;;;;13.40;69.20;;;;;;2059819;28;704;-50
2021/04/21 03:50:10;;;;;;;;;;;13.40;69.50;;;;;;2048409;29;728;-49
2021/04/21 03:51:29;;;;;;;;;;;13.40;69.50;;;;;;2052930;28;710;-48
2021/04/21 03:52:51;;;;;;;;;;;13.40;69.60;;;;;;2048490;29;724;-48
2021/04/21 03:54:10;;;;;;;;;;;13.40;69.60;;;;;;2053448;28;725;-49
2021/04/21 03:55:30;;;;;;;;;;;13.40;69.70;;;;;;2048482;29;724;-47
2021/04/21 03:56:49;;;;;;;;;;;13.40;69.70;;;;;;2053584;28;1354;-49
2021/04/21 03:58:09;;;;;;;;;;;13.40;69.70;;;;;;2056802;28;726;-49
2021/04/21 03:59:29;;;;;;;;;;;13.40;69.80;;;;;;2048662;29;725;-48
2021/04/21 04:00:49;;;;;;;;;;;13.40;69.80;;;;;;2050078;28;724;-48
2021/04/21 04:02:09;;;;;;;;;;;13.40;69.80;;;;;;2056543;28;751;-48
2021/04/21 04:03:28;;;;;;;;;;;13.50;69.90;;;;;;2056531;28;723;-48
2021/04/21 04:04:48;;;;;;;;;;;13.40;69.70;;;;;;2061161;28;1952;-48
2021/04/21 04:06:07;;;;;;;;;;;13.40;69.70;;;;;;2056493;28;1393;-48
2021/04/21 04:07:27;;;;;;;;;;;13.40;69.70;;;;;;2059432;28;1013;-51
2021/04/21 04:09:04;;;;;;;;;;;13.40;70.50;;;;;;2064152;28;1054;-51
2021/04/21 04:10:23;;;;;;;;;;;13.40;69.80;;;;;;2064424;28;782;-48
2021/04/21 04:11:44;;;;;;;;;;;13.40;69.80;;;;;;2060572;28;729;-50
2021/04/21 04:13:05;;;;;;;;;;;13.40;69.70;;;;;;2061387;28;799;-50
2021/04/21 04:14:27;;;;;;;;;;;13.40;69.80;;;;;;2053268;28;739;-48
2021/04/21 04:15:49;;;;;;;;;;;13.40;69.70;;;;;;2058727;28;777;-49
2021/04/21 04:17:08;;;;;;;;;;;13.40;69.80;;;;;;2069432;28;798;-51
2021/04/21 04:18:27;;;;;;;;;;;13.40;69.70;;;;;;2064141;28;787;-48
2021/04/21 04:19:46;;;;;;;;;;;13.40;69.70;;;;;;2064314;28;771;-48
2021/04/21 04:21:06;;;;;;;;;;;13.40;69.70;;;;;;2063475;28;705;-48
2021/04/21 04:22:26;;;;;;;;;;;13.40;69.70;;;;;;2063872;28;718;-48
2021/04/21 04:23:45;;;;;;;;;;;13.40;69.70;;;;;;2064518;28;784;-47
2021/04/21 04:25:04;;;;;;;;;;;13.40;69.70;;;;;;2063672;28;1914;-48
2021/04/21 04:26:23;;;;;;;;;;;13.40;69.70;;;;;;2068587;28;1453;-48
2021/04/21 04:27:43;;;;;;;;;;;13.40;69.80;;;;;;2063351;28;725;-48
2021/04/21 04:29:02;;;;;;;;;;;13.30;70.50;;;;;;2067307;28;753;-51
2021/04/21 04:30:22;;;;;;;;;;;13.40;69.80;;;;;;2063731;28;713;-48
2021/04/21 04:31:41;;;;;;;;;;;13.40;69.80;;;;;;2051999;28;726;-48
2021/04/21 04:33:01;;;;;;;;;;;13.40;69.90;;;;;;2060923;28;720;-47
2021/04/21 04:34:21;;;;;;;;;;;13.40;69.90;;;;;;2063954;28;734;-48
2021/04/21 04:35:40;;;;;;;;;;;13.30;69.80;;;;;;2069221;28;772;-47
2021/04/21 04:36:59;;;;;;;;;;;13.30;70.00;;;;;;2070250;28;1023;-48
2021/04/21 04:38:18;;;;;;;;;;;13.30;69.80;;;;;;2060430;28;1049;-48
2021/04/21 04:39:37;;;;;;;;;;;13.30;69.80;;;;;;2058496;28;1001;-47
2021/04/21 04:40:56;;;;;;;;;;;13.30;69.80;;;;;;2048329;29;728;-48
2021/04/21 04:42:16;;;;;;;;;;;13.30;69.80;;;;;;2057840;28;727;-48
2021/04/21 04:43:35;;;;;;;;;;;13.30;69.80;;;;;;2056132;28;754;-50
2021/04/21 04:44:54;;;;;;;;;;;13.30;69.80;;;;;;2052795;28;1977;-48
2021/04/21 04:46:14;;;;;;;;;;;13.30;70.50;;;;;;2061112;28;1385;-48
2021/04/21 04:47:43;;;;;;;;;;;13.30;70.50;;;;;;2056071;28;774;-47
2021/04/21 04:49:07;;;;;;;;;;;13.40;69.80;;;;;;2056877;28;755;-48
2021/04/21 04:50:26;;;;;;;;;;;13.30;69.70;;;;;;2056822;28;767;-48
2021/04/21 04:51:46;;;;;;;;;;;13.30;69.60;;;;;;2057565;28;794;-48
2021/04/21 04:53:05;;;;;;;;;;;13.30;69.50;;;;;;2049872;29;767;-48
2021/04/21 04:54:24;;;;;;;;;;;13.30;69.50;;;;;;2054708;28;773;-50
2021/04/21 04:55:43;;;;;;;;;;;13.30;69.60;;;;;;2057634;28;754;-49
2021/04/21 04:57:03;;;;;;;;;;;13.30;69.50;;;;;;2054698;28;746;-47
2021/04/21 04:58:23;;;;;;;;;;;13.40;69.50;;;;;;2057973;28;727;-48
2021/04/21 04:59:42;;;;;;;;;;;13.40;69.60;;;;;;2057283;28;765;-51
2021/04/21 05:01:05;;;;;;;;;;;13.40;69.30;;;;;;2058081;28;705;-48
2021/04/21 05:02:24;;;;;;;;;;;13.50;69.40;;;;;;2057871;28;750;-48
2021/04/21 05:03:47;;;;;;;;;;;13.50;69.10;;;;;;2052945;28;775;-48
2021/04/21 05:05:09;;;;;;;;;;;13.60;68.80;;;;;;2054842;28;1982;-47
2021/04/21 05:06:30;;;;;;;;;;;13.60;68.50;;;;;;2061455;28;1457;-49
2021/04/21 05:07:53;;;;;;;;;;;13.70;68.30;;;;;;2065805;28;1053;-48
2021/04/21 05:09:12;;;;;;;;;;;13.70;67.90;;;;;;2062496;28;1044;-49
2021/04/21 05:10:31;;;;;;;;;;;13.70;67.60;;;;;;2054614;28;740;-50
2021/04/21 05:11:50;;;;;;;;;;;13.80;67.40;;;;;;2057458;28;717;-48
2021/04/21 05:13:10;;;;;;;;;;;13.80;67.10;;;;;;2049801;29;726;-48
2021/04/21 05:14:29;;;;;;;;;;;13.90;66.60;;;;;;2059626;28;720;-48
2021/04/21 05:15:51;;;;;;;;;;;13.90;66.20;;;;;;2049624;29;774;-49
2021/04/21 05:17:29;;;;;;;;;;;14.00;66.00;;;;;;2060278;28;759;-49
2021/04/21 05:19:06;;;;;;;;;;;14.00;65.60;;;;;;2057572;28;955;-49
2021/04/21 05:20:44;;;;;;;;;;;14.00;65.40;;;;;;2058040;28;720;-48
2021/04/21 05:22:24;;;;;;;;;;;14.10;65.40;;;;;;2057508;28;698;-48
2021/04/21 05:23:43;;;;;;;;;;;14.10;65.30;;;;;;2058253;28;712;-48
2021/04/21 05:25:21;;;;;;;;;;;14.10;65.70;;;;;;2058356;28;1926;-48
2021/04/21 05:26:59;;;;;;;;;;;14.20;64.90;;;;;;2058318;28;1386;-48
2021/04/21 05:28:27;;;;;;;;;;;14.20;64.70;;;;;;2059809;28;1314;-48
2021/04/21 05:29:59;;;;;;;;;;;14.30;64.60;;;;;;2057655;28;807;-49
2021/04/21 05:31:36;;;;;;;;;;;14.30;64.40;;;;;;2057097;28;725;-48
2021/04/21 05:33:01;;;;;;;;;;;14.30;64.20;;;;;;2057362;28;743;-48
2021/04/21 05:34:39;;;;;;;;;;;14.40;64.20;;;;;;2055934;28;739;-47
2021/04/21 05:36:17;;;;;;;;;;;14.40;64.00;;;;;;2057292;28;1355;-49
2021/04/21 05:37:55;;;;;;;;;;;14.40;64.10;;;;;;2071416;28;1259;-47
2021/04/21 05:39:18;;;;;;;;;;;14.40;64.00;;;;;;2060843;28;1032;-48
2021/04/21 05:40:43;;;;;;;;;;;14.40;63.90;;;;;;2065994;28;944;-48
2021/04/21 05:42:09;;;;;;;;;;;14.50;63.80;;;;;;2065526;28;770;-50
2021/04/21 05:43:46;;;;;;;;;;;14.50;63.70;;;;;;2057346;28;813;-48
2021/04/21 05:45:24;;;;;;;;;;;14.50;63.60;;;;;;2065221;28;1966;-48
2021/04/21 05:47:02;;;;;;;;;;;14.50;63.30;;;;;;2065387;28;1382;-50
2021/04/21 05:48:40;;;;;;;;;;;14.50;63.50;;;;;;2062830;28;1183;-49
2021/04/21 05:50:06;;;;;;;;;;;14.60;63.50;;;;;;2057843;28;718;-47
2021/04/21 05:51:25;;;;;;;;;;;14.50;63.50;;;;;;2056606;28;721;-47
2021/04/21 05:53:03;;;;;;;;;;;14.50;63.50;;;;;;2057442;28;684;-47
2021/04/21 05:54:42;;;;;;;;;;;14.50;63.60;;;;;;2057647;28;704;-48
2021/04/21 05:56:04;;;;;;;;;;;14.50;63.70;;;;;;2057855;28;1333;-49
2021/04/21 05:57:27;;;;;;;;;;;14.50;63.80;;;;;;2057270;28;727;-51
2021/04/21 05:59:04;;;;;;;;;;;14.50;64.00;;;;;;2054557;28;718;-49
2021/04/21 06:00:31;;;;;;;;;;;14.50;64.20;;;;;;2056431;28;772;-48
2021/04/21 06:01:50;;;;;;;;;;;14.50;64.30;;;;;;2054802;28;753;-49
2021/04/21 06:03:10;;;;;;;;;;;14.50;64.30;;;;;;2056765;28;729;-49
2021/04/21 06:04:29;;;;;;;;;;;14.60;64.30;;;;;;2057054;28;758;-48
2021/04/21 06:05:49;;;;;;;;;;;14.60;64.30;;;;;;2057588;28;776;-49
2021/04/21 06:07:09;;;;;;;;;;;14.60;64.20;;;;;;2060310;28;985;-47
2021/04/21 06:08:28;;;;;;;;;;;14.60;64.20;;;;;;2072998;28;705;-49
2021/04/21 06:09:47;;;;;;;;;;;14.60;64.20;;;;;;2065312;28;1300;-49
2021/04/21 06:11:36;;;;;;;;;;;14.60;64.20;;;;;;2065438;28;727;-48
2021/04/21 06:12:57;;;;;;;;;;;14.60;64.20;;;;;;2063614;28;1311;-50
2021/04/21 06:14:17;;;;;;;;;;;14.70;64.30;;;;;;2057034;28;728;-49
2021/04/21 06:15:37;;;;;;;;;;;14.70;64.30;;;;;;2062211;28;777;-49
2021/04/21 06:16:56;;;;;;;;;;;14.70;64.10;;;;;;2065161;28;1369;-48
2021/04/21 06:18:15;;;;;;;;;;;14.70;64.00;;;;;;2064786;28;751;-47
2021/04/21 06:19:34;;;;;;;;;;;14.80;63.90;;;;;;2065412;28;705;-48
2021/04/21 06:20:54;;;;;;;;;;;14.80;63.60;;;;;;2065164;28;740;-48
2021/04/21 06:22:13;;;;;;;;;;;14.90;63.60;;;;;;2065075;28;779;-48
2021/04/21 06:23:32;;;;;;;;;;;14.90;63.30;;;;;;2065172;28;747;-48
2021/04/21 06:24:58;;;;;;;;;;;14.90;63.00;;;;;;2065436;28;1902;-47
2021/04/21 06:26:19;;;;;;;;;;;14.90;63.00;;;;;;2056895;28;1318;-48
2021/04/21 06:27:38;;;;;;;;;;;15.00;62.80;;;;;;2058377;28;770;-48
2021/04/21 06:29:01;;;;;;;;;;;15.00;62.80;;;;;;2065539;28;751;-48
2021/04/21 06:30:20;;;;;;;;;;;15.00;62.70;;;;;;2065571;28;729;-47
2021/04/21 06:31:42;;;;;;;;;;;15.00;62.70;;;;;;2064318;28;726;-48
2021/04/21 06:33:01;;;;;;;;;;;15.00;62.70;;;;;;2062030;28;772;-47
2021/04/21 06:34:20;;;;;;;;;;;15.00;63.50;;;;;;2062267;28;720;-49
2021/04/21 06:35:40;;;;;;;;;;;15.00;62.80;;;;;;2053536;28;721;-48
2021/04/21 06:36:59;;;;;;;;;;;15.10;62.90;;;;;;2058453;28;976;-47
2021/04/21 06:38:18;;;;;;;;;;;15.00;62.90;;;;;;2064545;28;1061;-48
2021/04/21 06:39:37;;;;;;;;;;;15.00;63.00;;;;;;2058062;28;1076;-48
2021/04/21 06:40:56;;;;;;;;;;;15.00;63.10;;;;;;2048892;29;740;-48
2021/04/21 06:42:16;;;;;;;;;;;15.00;63.20;;;;;;2058782;28;723;-49
2021/04/21 06:43:36;;;;;;;;;;;15.00;63.30;;;;;;2064396;28;741;-48
2021/04/21 06:44:55;;;;;;;;;;;15.00;63.40;;;;;;2056853;28;1978;-48
2021/04/21 06:46:17;;;;;;;;;;;15.00;63.50;;;;;;2056638;28;1318;-47
2021/04/21 06:47:36;;;;;;;;;;;15.00;64.40;;;;;;2054023;28;719;-48
2021/04/21 06:48:57;;;;;;;;;;;14.90;63.70;;;;;;2056985;28;716;-46
2021/04/21 06:50:16;;;;;;;;;;;14.90;63.80;;;;;;2061972;28;761;-48
2021/04/21 06:51:36;;;;;;;;;;;14.90;64.00;;;;;;2059414;28;771;-48
2021/04/21 06:53:03;;;;;;;;;;;14.90;64.10;;;;;;2057064;28;729;-49
2021/04/21 06:54:22;;;;;;;;;;;14.90;64.20;;;;;;2056711;28;746;-47
2021/04/21 06:55:41;;;;;;;;;;;14.90;64.30;;;;;;2057353;28;737;-49
2021/04/21 06:57:00;;;;;;;;;;;14.90;64.40;;;;;;2056769;28;740;-48
2021/04/21 06:58:22;;;;;;;;;;;14.90;64.60;;;;;;2056813;28;734;-47
2021/04/21 06:59:41;;;;;;;;;;;14.90;64.70;;;;;;2057403;28;721;-47
2021/04/21 07:01:29;;;;;;;;;;;14.90;64.80;;;;;;2057462;28;702;-47
2021/04/21 07:02:50;;;;;;;;;;;14.90;65.00;;;;;;2057463;28;933;-48
2021/04/21 07:04:09;;;;;;;;;;;14.80;65.10;;;;;;2057348;28;792;-46
2021/04/21 07:05:30;;;;;;;;;;;14.80;65.20;;;;;;2057167;28;1894;-47
2021/04/21 07:06:50;;;;;;;;;;;14.80;65.30;;;;;;2062237;28;1402;-47
2021/04/21 07:08:10;;;;;;;;;;;14.80;65.40;;;;;;2059850;28;980;-46
2021/04/21 07:09:28;;;;;;;;;;;14.80;65.50;;;;;;2058970;28;1028;-48
2021/04/21 07:10:49;;;;;;;;;;;14.80;65.50;;;;;;2058330;28;730;-47
2021/04/21 07:12:08;;;;;;;;;;;14.80;65.70;;;;;;2064884;28;724;-47
2021/04/21 07:13:29;;;;;;;;;;;14.80;65.80;;;;;;2064773;28;733;-46
2021/04/21 07:14:48;;;;;;;;;;;14.80;65.90;;;;;;2059564;28;720;-47
2021/04/21 07:16:08;;;;;;;;;;;14.80;66.00;;;;;;2061993;28;1375;-48
2021/04/21 07:17:28;;;;;;;;;;;14.70;65.90;;;;;;2056676;28;791;-48
2021/04/21 07:18:48;;;;;;;;;;;14.70;66.10;;;;;;2061606;28;750;-48
2021/04/21 07:20:07;;;;;;;;;;;14.70;66.20;;;;;;2061546;28;762;-48
2021/04/21 07:21:27;;;;;;;;;;;14.70;67.00;;;;;;2068842;28;744;-48
2021/04/21 07:22:46;;;;;;;;;;;14.70;66.40;;;;;;2064383;28;733;-48
2021/04/21 07:24:06;;;;;;;;;;;14.70;67.20;;;;;;2069534;28;774;-48
2021/04/21 07:25:25;;;;;;;;;;;14.70;66.50;;;;;;2068058;28;1907;-48
2021/04/21 07:26:44;;;;;;;;;;;14.70;66.60;;;;;;2065227;28;1396;-49
2021/04/21 07:28:04;;;;;;;;;;;14.70;66.70;;;;;;2064989;28;731;-47
2021/04/21 07:29:24;;;;;;;;;;;14.70;66.70;;;;;;2064772;28;743;-48
2021/04/21 07:30:43;;;;;;;;;;;14.70;66.70;;;;;;2061412;28;777;-49
2021/04/21 07:32:15;;;;;;;;;;;14.70;66.80;;;;;;2059125;28;1188;-50
2021/04/21 07:33:35;;;;;;;;;;;14.70;66.90;;;;;;2070088;28;781;-48
2021/04/21 07:35:02;;;;;;;;;;;14.70;67.00;;;;;;2064736;28;765;-48
2021/04/21 07:36:26;;;;;;;;;;;14.70;67.10;;;;;;2070559;28;1473;-49
2021/04/21 07:37:45;;;;;;;;;;;14.70;67.10;;;;;;2059157;28;1099;-49
2021/04/21 07:39:07;;;;;;;;;;;14.60;67.10;;;;;;2063877;28;1195;-49
2021/04/21 07:40:31;;;;;;;;;;;14.70;67.30;;;;;;2059894;28;828;-47
2021/04/21 07:41:51;;;;;;;;;;;14.60;67.90;;;;;;2056190;28;770;-48
2021/04/21 07:43:11;;;;;;;;;;;14.70;67.50;;;;;;2057041;28;812;-48
2021/04/21 07:44:30;;;;;;;;;;;14.60;67.40;;;;;;2056703;28;737;-48
2021/04/21 07:45:49;;;;;;;;;;;14.60;68.20;;;;;;2056711;28;792;-49
2021/04/21 07:47:10;;;;;;;;;;;14.60;67.50;;;;;;2057165;28;720;-49
2021/04/21 07:48:35;;;;;;;;;;;14.60;67.50;;;;;;2056313;28;740;-49
2021/04/21 07:49:54;;;;;;;;;;;14.60;68.30;;;;;;2056780;28;707;-49
2021/04/21 07:51:16;;;;;;;;;;;14.60;67.80;;;;;;2056131;28;713;-49
2021/04/21 07:52:36;;;;;;;;;;;14.60;67.80;;;;;;2056672;28;685;-47
2021/04/21 07:54:05;;;;;;;;;;;14.60;67.90;;;;;;2056405;28;713;-48
2021/04/21 07:55:24;;;;;;;;;;;14.60;67.90;;;;;;2062835;28;799;-48
2021/04/21 07:56:54;;;;;;;;;;;14.60;68.00;;;;;;2060010;28;1338;-47
2021/04/21 07:58:13;;;;;;;;;;;14.60;68.10;;;;;;2064267;28;715;-48
2021/04/21 07:59:33;;;;;;;;;;;14.60;68.10;;;;;;2058109;28;729;-47
2021/04/21 08:00:52;;;;;;;;;;;14.60;68.20;;;;;;2056668;28;845;-49
2021/04/21 08:02:15;;;;;;;;;;;14.60;68.20;;;;;;2064417;28;760;-48
2021/04/21 08:03:35;;;;;;;;;;;14.60;68.30;;;;;;2047010;29;802;-47
2021/04/21 08:04:55;;;;;;;;;;;14.60;68.30;;;;;;2058400;28;1902;-48
2021/04/21 08:06:14;;;;;;;;;;;14.50;69.00;;;;;;2065871;28;1382;-48
2021/04/21 08:07:41;;;;;;;;;;;14.60;68.30;;;;;;2061534;28;1016;-48
2021/04/21 08:09:00;;;;;;;;;;;14.60;68.40;;;;;;2065120;28;933;-47
2021/04/21 08:10:24;;;;;;;;;;;14.60;68.50;;;;;;2064888;28;744;-48
2021/04/21 08:11:43;;;;;;;;;;;14.50;68.30;;;;;;2071922;28;728;-47
2021/04/21 08:13:02;;;;;;;;;;;14.50;68.50;;;;;;2068244;28;790;-48
2021/04/21 08:14:38;;;;;;;;;;;14.50;68.50;;;;;;2065016;28;759;-49